sensor_id;sensor_type;location;lat;lon;timestamp;temperature;humidity
6178;DHT22;3122;48.208;11.174;2023-03-23T00:02:34;8.50;1.00
6178;DHT22;3122;48.208;11.174;2023-03-23T00:07:38;8.40;1.00
6178;DHT22;3122;48.208;11.174;2023-03-23T00:12:45;8.40;1.00
6178;DHT22;3122;48.208;11.174;2023-03-23T00:17:50;8.40;1.00
6178;DHT22;3122;48.208;11.174;2023-03-23T00:22:51;8.40;1.00
6178;DHT22;3122;48.208;11.174;2023-03-23T00:27:51;8.40;1.00
6178;DHT22;3122;48.208;11.174;2023-03-23T00:32:52;8.40;1.00
6178;DHT22;3122;48.208;11.174;2023-03-23T00:37:53;8.50;1.00
6178;DHT22;3122;48.208;11.174;2023-03-23T00:42:53;8.60;1.00
6178;DHT22;3122;48.208;11.174;2023-03-23T00:47:54;8.60;1.00
6178;DHT22;3122;48.208;11.174;2023-03-23T00:52:54;8.70;1.00
6178;DHT22;3122;48.208;11.174;2023-03-23T00:57:57;8.60;1.00
6178;DHT22;3122;48.208;11.174;2023-03-23T01:02:57;8.70;1.00
6178;DHT22;3122;48.208;11.174;2023-03-23T01:07:59;8.70;1.00
6178;DHT22;3122;48.208;11.174;2023-03-23T01:13:00;8.70;1.00
6178;DHT22;3122;48.208;11.174;2023-03-23T01:18:01;8.50;1.00
6178;DHT22;3122;48.208;11.174;2023-03-23T01:23:03;8.50;1.00
6178;DHT22;3122;48.208;11.174;2023-03-23T01:28:04;8.40;1.00
6178;DHT22;3122;48.208;11.174;2023-03-23T01:33:04;8.20;1.00
6178;DHT22;3122;48.208;11.174;2023-03-23T01:38:05;8.10;1.00
6178;DHT22;3122;48.208;11.174;2023-03-23T01:43:11;8.10;1.00
6178;DHT22;3122;48.208;11.174;2023-03-23T01:48:18;8.10;1.00
6178;DHT22;3122;48.208;11.174;2023-03-23T01:53:19;8.10;1.00
6178;DHT22;3122;48.208;11.174;2023-03-23T01:58:24;8.10;1.00
6178;DHT22;3122;48.208;11.174;2023-03-23T02:03:28;8.10;1.00
6178;DHT22;3122;48.208;11.174;2023-03-23T02:08:29;8.00;1.00
6178;DHT22;3122;48.208;11.174;2023-03-23T02:13:32;8.00;1.00
6178;DHT22;3122;48.208;11.174;2023-03-23T02:24:18;7.90;1.00
6178;DHT22;3122;48.208;11.174;2023-03-23T02:34:52;8.00;1.00
6178;DHT22;3122;48.208;11.174;2023-03-23T02:40:01;7.90;1.00
6178;DHT22;3122;48.208;11.174;2023-03-23T02:45:09;7.90;1.00
6178;DHT22;3122;48.208;11.174;2023-03-23T02:50:14;8.00;1.00
6178;DHT22;3122;48.208;11.174;2023-03-23T02:55:17;7.90;1.00
6178;DHT22;3122;48.208;11.174;2023-03-23T03:00:18;8.00;1.00
6178;DHT22;3122;48.208;11.174;2023-03-23T03:05:35;7.90;1.00
6178;DHT22;3122;48.208;11.174;2023-03-23T03:11:02;7.90;1.00
6178;DHT22;3122;48.208;11.174;2023-03-23T03:16:33;7.80;1.00
6178;DHT22;3122;48.208;11.174;2023-03-23T03:21:39;7.80;1.00
6178;DHT22;3122;48.208;11.174;2023-03-23T03:26:46;7.80;1.00
6178;DHT22;3122;48.208;11.174;2023-03-23T03:31:49;7.80;1.00
6178;DHT22;3122;48.208;11.174;2023-03-23T03:36:54;7.90;1.00
6178;DHT22;3122;48.208;11.174;2023-03-23T03:41:55;8.00;1.00
6178;DHT22;3122;48.208;11.174;2023-03-23T03:46:55;8.10;1.00
6178;DHT22;3122;48.208;11.174;2023-03-23T03:51:56;8.10;1.00
6178;DHT22;3122;48.208;11.174;2023-03-23T03:56:57;8.10;1.00
6178;DHT22;3122;48.208;11.174;2023-03-23T04:01:58;8.10;1.00
6178;DHT22;3122;48.208;11.174;2023-03-23T04:06:58;8.00;1.00
6178;DHT22;3122;48.208;11.174;2023-03-23T04:11:59;8.00;1.00
6178;DHT22;3122;48.208;11.174;2023-03-23T04:16:59;8.10;1.00
6178;DHT22;3122;48.208;11.174;2023-03-23T04:22:00;8.30;1.00
6178;DHT22;3122;48.208;11.174;2023-03-23T04:27:01;8.30;1.00
6178;DHT22;3122;48.208;11.174;2023-03-23T04:32:02;8.30;1.00
6178;DHT22;3122;48.208;11.174;2023-03-23T04:37:02;8.20;1.00
6178;DHT22;3122;48.208;11.174;2023-03-23T04:42:03;8.30;1.00
6178;DHT22;3122;48.208;11.174;2023-03-23T04:47:04;8.30;1.00
6178;DHT22;3122;48.208;11.174;2023-03-23T04:52:04;8.30;1.00
6178;DHT22;3122;48.208;11.174;2023-03-23T04:57:06;8.30;1.00
6178;DHT22;3122;48.208;11.174;2023-03-23T05:02:09;8.30;1.00
6178;DHT22;3122;48.208;11.174;2023-03-23T05:07:10;8.40;1.00
6178;DHT22;3122;48.208;11.174;2023-03-23T05:12:11;8.40;1.00
6178;DHT22;3122;48.208;11.174;2023-03-23T05:17:12;8.40;1.00
6178;DHT22;3122;48.208;11.174;2023-03-23T05:22:17;8.60;1.00
6178;DHT22;3122;48.208;11.174;2023-03-23T05:27:19;8.70;1.00
6178;DHT22;3122;48.208;11.174;2023-03-23T05:32:19;8.60;1.00
6178;DHT22;3122;48.208;11.174;2023-03-23T05:37:20;8.70;1.00
6178;DHT22;3122;48.208;11.174;2023-03-23T05:42:22;8.70;1.00
6178;DHT22;3122;48.208;11.174;2023-03-23T05:47:22;8.70;1.00
6178;DHT22;3122;48.208;11.174;2023-03-23T05:52:23;8.70;1.00
6178;DHT22;3122;48.208;11.174;2023-03-23T05:57:25;9.00;1.00
6178;DHT22;3122;48.208;11.174;2023-03-23T06:02:26;9.00;1.00
6178;DHT22;3122;48.208;11.174;2023-03-23T06:07:29;9.00;1.00
6178;DHT22;3122;48.208;11.174;2023-03-23T06:12:30;8.80;1.00
6178;DHT22;3122;48.208;11.174;2023-03-23T06:17:32;8.90;1.00
6178;DHT22;3122;48.208;11.174;2023-03-23T06:22:32;9.00;1.00
6178;DHT22;3122;48.208;11.174;2023-03-23T06:27:33;9.00;1.00
6178;DHT22;3122;48.208;11.174;2023-03-23T06:32:35;9.10;1.00
6178;DHT22;3122;48.208;11.174;2023-03-23T06:37:36;9.20;1.00
6178;DHT22;3122;48.208;11.174;2023-03-23T06:42:37;9.20;1.00
6178;DHT22;3122;48.208;11.174;2023-03-23T06:47:37;9.30;1.00
6178;DHT22;3122;48.208;11.174;2023-03-23T06:52:39;9.40;1.00
6178;DHT22;3122;48.208;11.174;2023-03-23T06:57:40;9.50;1.00
6178;DHT22;3122;48.208;11.174;2023-03-23T07:02:40;9.60;1.00
6178;DHT22;3122;48.208;11.174;2023-03-23T07:07:41;9.80;1.00
6178;DHT22;3122;48.208;11.174;2023-03-23T07:12:42;9.90;1.00
6178;DHT22;3122;48.208;11.174;2023-03-23T07:17:43;10.00;1.00
6178;DHT22;3122;48.208;11.174;2023-03-23T07:22:43;10.10;1.00
6178;DHT22;3122;48.208;11.174;2023-03-23T07:27:45;10.20;1.00
6178;DHT22;3122;48.208;11.174;2023-03-23T07:32:46;10.30;1.00
6178;DHT22;3122;48.208;11.174;2023-03-23T07:37:47;10.40;1.00
6178;DHT22;3122;48.208;11.174;2023-03-23T07:42:54;10.70;1.00
6178;DHT22;3122;48.208;11.174;2023-03-23T07:47:55;10.80;1.00
6178;DHT22;3122;48.208;11.174;2023-03-23T07:52:57;10.90;1.00
6178;DHT22;3122;48.208;11.174;2023-03-23T07:57:58;11.00;1.00
6178;DHT22;3122;48.208;11.174;2023-03-23T08:02:59;11.10;1.00
6178;DHT22;3122;48.208;11.174;2023-03-23T08:08:00;11.30;1.00
6178;DHT22;3122;48.208;11.174;2023-03-23T08:13:02;11.40;1.00
6178;DHT22;3122;48.208;11.174;2023-03-23T08:18:03;11.60;1.00
6178;DHT22;3122;48.208;11.174;2023-03-23T08:23:03;11.70;1.00
6178;DHT22;3122;48.208;11.174;2023-03-23T08:28:04;11.80;1.00
6178;DHT22;3122;48.208;11.174;2023-03-23T08:33:05;12.00;1.00
6178;DHT22;3122;48.208;11.174;2023-03-23T08:38:06;12.10;1.00
6178;DHT22;3122;48.208;11.174;2023-03-23T08:43:06;12.30;1.00
6178;DHT22;3122;48.208;11.174;2023-03-23T08:48:08;12.60;1.00
6178;DHT22;3122;48.208;11.174;2023-03-23T08:53:09;12.80;1.00
6178;DHT22;3122;48.208;11.174;2023-03-23T08:58:09;13.00;1.00
6178;DHT22;3122;48.208;11.174;2023-03-23T09:03:10;13.20;1.00
6178;DHT22;3122;48.208;11.174;2023-03-23T09:08:11;13.30;1.00
6178;DHT22;3122;48.208;11.174;2023-03-23T09:13:12;13.30;1.00
6178;DHT22;3122;48.208;11.174;2023-03-23T09:18:13;13.50;1.00
6178;DHT22;3122;48.208;11.174;2023-03-23T09:23:14;13.50;1.00
6178;DHT22;3122;48.208;11.174;2023-03-23T09:28:15;13.60;1.00
6178;DHT22;3122;48.208;11.174;2023-03-23T09:33:16;13.80;1.00
6178;DHT22;3122;48.208;11.174;2023-03-23T09:38:16;14.00;1.00
6178;DHT22;3122;48.208;11.174;2023-03-23T09:48:53;14.30;1.00
6178;DHT22;3122;48.208;11.174;2023-03-23T09:53:58;14.30;1.00
6178;DHT22;3122;48.208;11.174;2023-03-23T09:59:14;14.60;1.00
6178;DHT22;3122;48.208;11.174;2023-03-23T10:04:42;14.80;1.00
6178;DHT22;3122;48.208;11.174;2023-03-23T10:09:46;15.20;1.00
6178;DHT22;3122;48.208;11.174;2023-03-23T10:15:12;15.50;1.00
6178;DHT22;3122;48.208;11.174;2023-03-23T10:25:28;15.60;1.00
6178;DHT22;3122;48.208;11.174;2023-03-23T10:30:36;15.70;1.00
6178;DHT22;3122;48.208;11.174;2023-03-23T10:35:48;15.70;1.00
6178;DHT22;3122;48.208;11.174;2023-03-23T10:41:05;15.80;1.00
6178;DHT22;3122;48.208;11.174;2023-03-23T10:51:36;15.90;1.00
6178;DHT22;3122;48.208;11.174;2023-03-23T10:56:40;16.00;1.00
6178;DHT22;3122;48.208;11.174;2023-03-23T11:01:44;16.00;1.00
6178;DHT22;3122;48.208;11.174;2023-03-23T11:06:49;16.10;1.00
6178;DHT22;3122;48.208;11.174;2023-03-23T11:11:53;16.30;1.00
6178;DHT22;3122;48.208;11.174;2023-03-23T11:16:56;16.40;1.00
6178;DHT22;3122;48.208;11.174;2023-03-23T11:27:08;16.70;1.00
6178;DHT22;3122;48.208;11.174;2023-03-23T11:32:12;16.80;1.00
6178;DHT22;3122;48.208;11.174;2023-03-23T11:37:42;16.90;1.00
6178;DHT22;3122;48.208;11.174;2023-03-23T11:42:56;17.00;1.00
6178;DHT22;3122;48.208;11.174;2023-03-23T11:48:06;17.20;1.00
6178;DHT22;3122;48.208;11.174;2023-03-23T11:53:23;17.40;1.00
6178;DHT22;3122;48.208;11.174;2023-03-23T11:58:25;17.50;1.00
6178;DHT22;3122;48.208;11.174;2023-03-23T12:14:16;17.20;1.00
6178;DHT22;3122;48.208;11.174;2023-03-23T12:40:55;16.60;1.00
6178;DHT22;3122;48.208;11.174;2023-03-23T12:56:34;16.50;1.00
6178;DHT22;3122;48.208;11.174;2023-03-23T13:01:44;16.50;1.00
6178;DHT22;3122;48.208;11.174;2023-03-23T13:06:47;16.50;1.00
6178;DHT22;3122;48.208;11.174;2023-03-23T13:11:49;16.60;1.00
6178;DHT22;3122;48.208;11.174;2023-03-23T13:27:12;16.90;1.00
6178;DHT22;3122;48.208;11.174;2023-03-23T13:32:19;16.90;1.00
6178;DHT22;3122;48.208;11.174;2023-03-23T13:37:25;16.90;1.00
6178;DHT22;3122;48.208;11.174;2023-03-23T13:42:28;16.90;1.00
6178;DHT22;3122;48.208;11.174;2023-03-23T13:47:40;16.80;1.00
6178;DHT22;3122;48.208;11.174;2023-03-23T14:03:19;17.10;1.00
6178;DHT22;3122;48.208;11.174;2023-03-23T14:08:37;16.70;1.00
6178;DHT22;3122;48.208;11.174;2023-03-23T14:18:54;16.50;1.00
6178;DHT22;3122;48.208;11.174;2023-03-23T14:23:55;16.50;1.00
6178;DHT22;3122;48.208;11.174;2023-03-23T14:28:56;16.40;1.00
6178;DHT22;3122;48.208;11.174;2023-03-23T14:34:03;16.40;1.00
6178;DHT22;3122;48.208;11.174;2023-03-23T14:39:11;16.20;1.00
6178;DHT22;3122;48.208;11.174;2023-03-23T14:44:24;16.10;1.00
6178;DHT22;3122;48.208;11.174;2023-03-23T14:49:35;16.10;1.00
6178;DHT22;3122;48.208;11.174;2023-03-23T14:54:38;16.10;1.00
6178;DHT22;3122;48.208;11.174;2023-03-23T14:59:47;16.10;1.00
6178;DHT22;3122;48.208;11.174;2023-03-23T15:04:50;16.00;1.00
6178;DHT22;3122;48.208;11.174;2023-03-23T15:09:52;16.10;1.00
6178;DHT22;3122;48.208;11.174;2023-03-23T15:14:55;16.10;1.00
6178;DHT22;3122;48.208;11.174;2023-03-23T15:19:57;16.00;1.00
6178;DHT22;3122;48.208;11.174;2023-03-23T15:35:25;15.30;1.00
6178;DHT22;3122;48.208;11.174;2023-03-23T15:40:27;15.30;1.00
6178;DHT22;3122;48.208;11.174;2023-03-23T15:45:32;15.20;1.00
6178;DHT22;3122;48.208;11.174;2023-03-23T15:50:34;15.20;1.00
6178;DHT22;3122;48.208;11.174;2023-03-23T15:55:37;15.00;1.00
6178;DHT22;3122;48.208;11.174;2023-03-23T16:00:39;15.00;1.00
6178;DHT22;3122;48.208;11.174;2023-03-23T16:05:40;15.00;1.00
6178;DHT22;3122;48.208;11.174;2023-03-23T16:10:41;14.80;1.00
6178;DHT22;3122;48.208;11.174;2023-03-23T16:15:41;14.80;1.00
6178;DHT22;3122;48.208;11.174;2023-03-23T16:20:42;14.80;1.00
6178;DHT22;3122;48.208;11.174;2023-03-23T16:25:43;14.70;1.00
6178;DHT22;3122;48.208;11.174;2023-03-23T16:30:43;14.50;1.00
6178;DHT22;3122;48.208;11.174;2023-03-23T16:35:44;14.50;1.00
6178;DHT22;3122;48.208;11.174;2023-03-23T16:40:46;14.50;1.00
6178;DHT22;3122;48.208;11.174;2023-03-23T16:45:46;14.50;1.00
6178;DHT22;3122;48.208;11.174;2023-03-23T16:50:48;14.50;1.00
6178;DHT22;3122;48.208;11.174;2023-03-23T16:55:51;14.50;1.00
6178;DHT22;3122;48.208;11.174;2023-03-23T17:00:52;14.50;1.00
6178;DHT22;3122;48.208;11.174;2023-03-23T17:05:53;14.50;1.00
6178;DHT22;3122;48.208;11.174;2023-03-23T17:10:54;14.40;1.00
6178;DHT22;3122;48.208;11.174;2023-03-23T17:15:55;14.40;1.00
6178;DHT22;3122;48.208;11.174;2023-03-23T17:20:56;14.40;1.00
6178;DHT22;3122;48.208;11.174;2023-03-23T17:25:57;14.30;1.00
6178;DHT22;3122;48.208;11.174;2023-03-23T17:30:57;14.20;1.00
6178;DHT22;3122;48.208;11.174;2023-03-23T17:35:58;14.20;1.00
6178;DHT22;3122;48.208;11.174;2023-03-23T17:41:00;14.00;1.00
6178;DHT22;3122;48.208;11.174;2023-03-23T17:46:01;14.00;1.00
6178;DHT22;3122;48.208;11.174;2023-03-23T17:51:02;13.90;1.00
6178;DHT22;3122;48.208;11.174;2023-03-23T17:56:04;13.80;1.00
6178;DHT22;3122;48.208;11.174;2023-03-23T18:01:05;13.70;1.00
6178;DHT22;3122;48.208;11.174;2023-03-23T18:06:07;13.70;1.00
6178;DHT22;3122;48.208;11.174;2023-03-23T18:11:08;13.70;1.00
6178;DHT22;3122;48.208;11.174;2023-03-23T18:16:09;13.70;1.00
6178;DHT22;3122;48.208;11.174;2023-03-23T18:21:10;13.70;1.00
6178;DHT22;3122;48.208;11.174;2023-03-23T18:26:12;13.70;1.00
6178;DHT22;3122;48.208;11.174;2023-03-23T18:31:14;13.50;1.00
6178;DHT22;3122;48.208;11.174;2023-03-23T18:36:17;13.50;1.00
6178;DHT22;3122;48.208;11.174;2023-03-23T18:41:18;13.40;1.00
6178;DHT22;3122;48.208;11.174;2023-03-23T18:46:18;13.40;1.00
6178;DHT22;3122;48.208;11.174;2023-03-23T18:51:19;13.40;1.00
6178;DHT22;3122;48.208;11.174;2023-03-23T18:56:20;13.30;1.00
6178;DHT22;3122;48.208;11.174;2023-03-23T19:01:20;13.20;1.00
6178;DHT22;3122;48.208;11.174;2023-03-23T19:06:23;13.10;1.00
6178;DHT22;3122;48.208;11.174;2023-03-23T19:11:25;13.10;1.00
6178;DHT22;3122;48.208;11.174;2023-03-23T19:16:26;13.00;1.00
6178;DHT22;3122;48.208;11.174;2023-03-23T19:21:28;13.00;1.00
6178;DHT22;3122;48.208;11.174;2023-03-23T19:26:31;12.90;1.00
6178;DHT22;3122;48.208;11.174;2023-03-23T19:31:33;12.80;1.00
6178;DHT22;3122;48.208;11.174;2023-03-23T19:36:34;12.80;1.00
6178;DHT22;3122;48.208;11.174;2023-03-23T19:41:35;12.80;1.00
6178;DHT22;3122;48.208;11.174;2023-03-23T19:46:36;12.80;1.00
6178;DHT22;3122;48.208;11.174;2023-03-23T19:51:36;12.80;1.00
6178;DHT22;3122;48.208;11.174;2023-03-23T19:56:37;12.80;1.00
6178;DHT22;3122;48.208;11.174;2023-03-23T20:01:38;12.80;1.00
6178;DHT22;3122;48.208;11.174;2023-03-23T20:06:40;12.70;1.00
6178;DHT22;3122;48.208;11.174;2023-03-23T20:11:41;12.60;1.00
6178;DHT22;3122;48.208;11.174;2023-03-23T20:16:41;12.60;1.00
6178;DHT22;3122;48.208;11.174;2023-03-23T20:21:42;12.70;1.00
6178;DHT22;3122;48.208;11.174;2023-03-23T20:26:43;12.70;1.00
6178;DHT22;3122;48.208;11.174;2023-03-23T20:31:44;12.70;1.00
6178;DHT22;3122;48.208;11.174;2023-03-23T20:36:46;12.70;1.00
6178;DHT22;3122;48.208;11.174;2023-03-23T20:41:51;12.60;1.00
6178;DHT22;3122;48.208;11.174;2023-03-23T20:46:54;12.50;1.00
6178;DHT22;3122;48.208;11.174;2023-03-23T20:51:55;12.50;1.00
6178;DHT22;3122;48.208;11.174;2023-03-23T20:56:56;12.60;1.00
6178;DHT22;3122;48.208;11.174;2023-03-23T21:02:00;12.60;1.00
6178;DHT22;3122;48.208;11.174;2023-03-23T21:07:00;12.60;1.00
6178;DHT22;3122;48.208;11.174;2023-03-23T21:12:01;12.70;1.00
6178;DHT22;3122;48.208;11.174;2023-03-23T21:17:06;12.50;1.00
6178;DHT22;3122;48.208;11.174;2023-03-23T21:22:06;12.30;1.00
6178;DHT22;3122;48.208;11.174;2023-03-23T21:27:09;12.30;1.00
6178;DHT22;3122;48.208;11.174;2023-03-23T21:32:09;12.30;1.00
6178;DHT22;3122;48.208;11.174;2023-03-23T21:37:10;12.20;1.00
6178;DHT22;3122;48.208;11.174;2023-03-23T21:42:11;12.20;1.00
6178;DHT22;3122;48.208;11.174;2023-03-23T21:47:15;12.10;1.00
6178;DHT22;3122;48.208;11.174;2023-03-23T21:52:17;12.20;1.00
6178;DHT22;3122;48.208;11.174;2023-03-23T21:57:18;12.20;1.00
6178;DHT22;3122;48.208;11.174;2023-03-23T22:02:19;12.10;1.00
6178;DHT22;3122;48.208;11.174;2023-03-23T22:07:20;12.10;1.00
6178;DHT22;3122;48.208;11.174;2023-03-23T22:12:23;12.10;1.00
6178;DHT22;3122;48.208;11.174;2023-03-23T22:17:23;12.10;1.00
6178;DHT22;3122;48.208;11.174;2023-03-23T22:22:24;12.00;1.00
6178;DHT22;3122;48.208;11.174;2023-03-23T22:27:25;12.00;1.00
6178;DHT22;3122;48.208;11.174;2023-03-23T22:32:26;11.90;1.00
6178;DHT22;3122;48.208;11.174;2023-03-23T22:37:26;11.90;1.00
6178;DHT22;3122;48.208;11.174;2023-03-23T22:42:27;11.90;1.00
6178;DHT22;3122;48.208;11.174;2023-03-23T22:47:28;11.80;1.00
6178;DHT22;3122;48.208;11.174;2023-03-23T22:52:29;11.70;1.00
6178;DHT22;3122;48.208;11.174;2023-03-23T22:57:30;11.70;1.00
6178;DHT22;3122;48.208;11.174;2023-03-23T23:02:31;11.70;1.00
6178;DHT22;3122;48.208;11.174;2023-03-23T23:07:31;11.70;1.00
6178;DHT22;3122;48.208;11.174;2023-03-23T23:12:32;11.60;1.00
6178;DHT22;3122;48.208;11.174;2023-03-23T23:17:34;11.60;1.00
6178;DHT22;3122;48.208;11.174;2023-03-23T23:22:39;11.60;1.00
6178;DHT22;3122;48.208;11.174;2023-03-23T23:27:40;11.60;1.00
6178;DHT22;3122;48.208;11.174;2023-03-23T23:32:40;11.60;1.00
6178;DHT22;3122;48.208;11.174;2023-03-23T23:37:44;11.70;1.00
6178;DHT22;3122;48.208;11.174;2023-03-23T23:42:46;11.80;1.00
6178;DHT22;3122;48.208;11.174;2023-03-23T23:47:47;11.90;1.00
6178;DHT22;3122;48.208;11.174;2023-03-23T23:52:48;11.90;1.00
6178;DHT22;3122;48.208;11.174;2023-03-23T23:57:50;11.90;1.00
